Terminal Aerodrome Forecast
Issued by NWS

Home | Current Version | Previous Version | Text Only | Print | Product List | Glossary Off
Versions: 1 2 3 4 5 6 7 8 9 10 11 12 13 14 15

773
FTUS43 KMPX 201139
TAFRWF
TAF
KRWF 201139Z 2012/2112 16013KT P6SM VCSH SCT020 OVC100
     FM201400 16012KT 6SM -SHRA BR VCTS BKN015 OVC040CB
      TEMPO 2015/2019 3SM -SHRA BR OVC008
     FM201900 20012KT 5SM -SHRA BKN008 OVC035
     FM202100 24013KT P6SM BKN035
     FM210000 28013G21KT P6SM SCT040 SCT150
     FM210300 26007KT P6SM SKC=

USA.gov is the U.S. government's official web portal to all federal, state and local government web resources and services.